sensor_id;sensor_type;location;lat;lon;timestamp;P1;durP1;ratioP1;P2;durP2;ratioP2
67272;SDS011;54190;49.770;9.250;2023-04-06T00:01:27;9.87;;;6.90;;
67272;SDS011;54190;49.770;9.250;2023-04-06T00:03:52;9.50;;;6.00;;
67272;SDS011;54190;49.770;9.250;2023-04-06T00:06:18;8.70;;;6.00;;
67272;SDS011;54190;49.770;9.250;2023-04-06T00:08:43;10.30;;;6.37;;
67272;SDS011;54190;49.770;9.250;2023-04-06T00:11:09;9.27;;;6.83;;
67272;SDS011;54190;49.770;9.250;2023-04-06T00:13:35;9.70;;;6.70;;
67272;SDS011;54190;49.770;9.250;2023-04-06T00:16:01;10.27;;;6.67;;
67272;SDS011;54190;49.770;9.250;2023-04-06T00:18:26;9.40;;;6.17;;
67272;SDS011;54190;49.770;9.250;2023-04-06T00:20:52;10.87;;;6.20;;
67272;SDS011;54190;49.770;9.250;2023-04-06T00:23:18;8.20;;;5.87;;
67272;SDS011;54190;49.770;9.250;2023-04-06T00:25:43;7.57;;;5.67;;
67272;SDS011;54190;49.770;9.250;2023-04-06T00:28:09;9.80;;;6.03;;
67272;SDS011;54190;49.770;9.250;2023-04-06T00:30:35;11.13;;;6.30;;
67272;SDS011;54190;49.770;9.250;2023-04-06T00:33:00;8.90;;;6.60;;
67272;SDS011;54190;49.770;9.250;2023-04-06T00:35:26;8.97;;;6.00;;
67272;SDS011;54190;49.770;9.250;2023-04-06T00:37:51;7.90;;;5.77;;
67272;SDS011;54190;49.770;9.250;2023-04-06T00:40:17;8.57;;;5.73;;
67272;SDS011;54190;49.770;9.250;2023-04-06T00:42:44;9.20;;;6.77;;
67272;SDS011;54190;49.770;9.250;2023-04-06T00:45:10;8.10;;;6.17;;
67272;SDS011;54190;49.770;9.250;2023-04-06T00:47:36;10.60;;;6.20;;
67272;SDS011;54190;49.770;9.250;2023-04-06T00:50:01;7.87;;;6.00;;
67272;SDS011;54190;49.770;9.250;2023-04-06T00:52:27;12.17;;;6.60;;
67272;SDS011;54190;49.770;9.250;2023-04-06T00:54:53;8.10;;;6.33;;
67272;SDS011;54190;49.770;9.250;2023-04-06T00:57:20;8.80;;;6.37;;
67272;SDS011;54190;49.770;9.250;2023-04-06T00:59:52;8.50;;;5.70;;
67272;SDS011;54190;49.770;9.250;2023-04-06T01:02:18;8.87;;;6.50;;
67272;SDS011;54190;49.770;9.250;2023-04-06T01:04:47;7.90;;;6.00;;
67272;SDS011;54190;49.770;9.250;2023-04-06T01:07:23;10.00;;;6.63;;
67272;SDS011;54190;49.770;9.250;2023-04-06T01:10:02;7.93;;;6.07;;
67272;SDS011;54190;49.770;9.250;2023-04-06T01:12:30;10.60;;;6.50;;
67272;SDS011;54190;49.770;9.250;2023-04-06T01:14:58;8.53;;;5.93;;
67272;SDS011;54190;49.770;9.250;2023-04-06T01:17:25;9.47;;;6.60;;
67272;SDS011;54190;49.770;9.250;2023-04-06T01:19:54;10.80;;;6.40;;
67272;SDS011;54190;49.770;9.250;2023-04-06T01:22:25;9.80;;;7.03;;
67272;SDS011;54190;49.770;9.250;2023-04-06T01:24:57;10.67;;;6.70;;
67272;SDS011;54190;49.770;9.250;2023-04-06T01:27:49;9.33;;;6.80;;
67272;SDS011;54190;49.770;9.250;2023-04-06T01:30:21;8.90;;;6.67;;
67272;SDS011;54190;49.770;9.250;2023-04-06T01:32:51;9.60;;;6.50;;
67272;SDS011;54190;49.770;9.250;2023-04-06T01:35:26;9.63;;;7.37;;
67272;SDS011;54190;49.770;9.250;2023-04-06T01:38:08;9.87;;;6.43;;
67272;SDS011;54190;49.770;9.250;2023-04-06T01:40:35;10.87;;;6.97;;
67272;SDS011;54190;49.770;9.250;2023-04-06T01:43:01;11.90;;;6.77;;
67272;SDS011;54190;49.770;9.250;2023-04-06T01:45:33;10.83;;;7.63;;
67272;SDS011;54190;49.770;9.250;2023-04-06T01:48:08;10.83;;;7.43;;
67272;SDS011;54190;49.770;9.250;2023-04-06T01:50:34;9.90;;;7.30;;
67272;SDS011;54190;49.770;9.250;2023-04-06T01:53:00;11.57;;;6.60;;
67272;SDS011;54190;49.770;9.250;2023-04-06T01:55:27;13.40;;;7.67;;
67272;SDS011;54190;49.770;9.250;2023-04-06T01:58:19;8.97;;;6.50;;
67272;SDS011;54190;49.770;9.250;2023-04-06T02:00:45;10.83;;;7.10;;
67272;SDS011;54190;49.770;9.250;2023-04-06T02:03:11;10.50;;;7.50;;
67272;SDS011;54190;49.770;9.250;2023-04-06T02:05:37;10.60;;;6.97;;
67272;SDS011;54190;49.770;9.250;2023-04-06T02:08:13;11.73;;;6.60;;
67272;SDS011;54190;49.770;9.250;2023-04-06T02:10:39;9.87;;;6.90;;
67272;SDS011;54190;49.770;9.250;2023-04-06T02:13:13;10.60;;;6.90;;
67272;SDS011;54190;49.770;9.250;2023-04-06T02:15:44;10.77;;;7.00;;
67272;SDS011;54190;49.770;9.250;2023-04-06T02:18:09;9.63;;;6.97;;
67272;SDS011;54190;49.770;9.250;2023-04-06T02:20:35;11.77;;;7.53;;
67272;SDS011;54190;49.770;9.250;2023-04-06T02:23:01;9.73;;;6.83;;
67272;SDS011;54190;49.770;9.250;2023-04-06T02:25:26;10.17;;;6.97;;
67272;SDS011;54190;49.770;9.250;2023-04-06T02:27:53;11.03;;;7.17;;
67272;SDS011;54190;49.770;9.250;2023-04-06T02:30:19;10.33;;;7.37;;
67272;SDS011;54190;49.770;9.250;2023-04-06T02:32:45;9.03;;;7.17;;
67272;SDS011;54190;49.770;9.250;2023-04-06T02:35:11;9.70;;;6.67;;
67272;SDS011;54190;49.770;9.250;2023-04-06T02:37:38;10.33;;;7.43;;
67272;SDS011;54190;49.770;9.250;2023-04-06T02:40:04;8.00;;;6.60;;
67272;SDS011;54190;49.770;9.250;2023-04-06T02:42:31;9.53;;;7.10;;
67272;SDS011;54190;49.770;9.250;2023-04-06T02:44:57;10.23;;;6.90;;
67272;SDS011;54190;49.770;9.250;2023-04-06T02:47:27;9.80;;;7.40;;
67272;SDS011;54190;49.770;9.250;2023-04-06T02:49:53;13.80;;;8.00;;
67272;SDS011;54190;49.770;9.250;2023-04-06T02:52:18;12.70;;;8.00;;
67272;SDS011;54190;49.770;9.250;2023-04-06T02:54:44;10.90;;;7.67;;
67272;SDS011;54190;49.770;9.250;2023-04-06T02:57:10;10.03;;;7.57;;
67272;SDS011;54190;49.770;9.250;2023-04-06T02:59:40;11.40;;;7.47;;
67272;SDS011;54190;49.770;9.250;2023-04-06T03:02:17;13.40;;;8.20;;
67272;SDS011;54190;49.770;9.250;2023-04-06T03:04:43;10.47;;;7.17;;
67272;SDS011;54190;49.770;9.250;2023-04-06T03:07:19;12.30;;;7.63;;
67272;SDS011;54190;49.770;9.250;2023-04-06T03:09:45;11.80;;;7.90;;
67272;SDS011;54190;49.770;9.250;2023-04-06T03:12:10;10.70;;;7.80;;
67272;SDS011;54190;49.770;9.250;2023-04-06T03:14:58;12.90;;;7.73;;
67272;SDS011;54190;49.770;9.250;2023-04-06T03:17:25;12.80;;;7.80;;
67272;SDS011;54190;49.770;9.250;2023-04-06T03:19:52;12.60;;;8.30;;
67272;SDS011;54190;49.770;9.250;2023-04-06T03:22:19;10.27;;;7.27;;
67272;SDS011;54190;49.770;9.250;2023-04-06T03:24:46;8.83;;;6.73;;
67272;SDS011;54190;49.770;9.250;2023-04-06T03:27:12;11.43;;;7.63;;
67272;SDS011;54190;49.770;9.250;2023-04-06T03:29:38;11.03;;;7.40;;
67272;SDS011;54190;49.770;9.250;2023-04-06T03:32:06;10.20;;;7.00;;
67272;SDS011;54190;49.770;9.250;2023-04-06T03:34:36;9.37;;;7.30;;
67272;SDS011;54190;49.770;9.250;2023-04-06T03:37:01;11.13;;;7.30;;
67272;SDS011;54190;49.770;9.250;2023-04-06T03:39:28;8.87;;;6.87;;
67272;SDS011;54190;49.770;9.250;2023-04-06T03:41:54;10.40;;;7.33;;
67272;SDS011;54190;49.770;9.250;2023-04-06T03:44:31;12.53;;;7.73;;
67272;SDS011;54190;49.770;9.250;2023-04-06T03:46:57;12.30;;;7.10;;
67272;SDS011;54190;49.770;9.250;2023-04-06T03:49:24;10.13;;;7.37;;
67272;SDS011;54190;49.770;9.250;2023-04-06T03:51:52;11.73;;;7.80;;
67272;SDS011;54190;49.770;9.250;2023-04-06T03:54:17;12.83;;;7.40;;
67272;SDS011;54190;49.770;9.250;2023-04-06T03:56:43;14.67;;;7.80;;
67272;SDS011;54190;49.770;9.250;2023-04-06T03:59:09;11.80;;;7.87;;
67272;SDS011;54190;49.770;9.250;2023-04-06T04:01:35;11.70;;;7.87;;
67272;SDS011;54190;49.770;9.250;2023-04-06T04:04:01;9.93;;;7.53;;
67272;SDS011;54190;49.770;9.250;2023-04-06T04:06:27;11.10;;;7.47;;
67272;SDS011;54190;49.770;9.250;2023-04-06T04:08:52;14.10;;;8.37;;
67272;SDS011;54190;49.770;9.250;2023-04-06T04:11:18;17.20;;;9.90;;
67272;SDS011;54190;49.770;9.250;2023-04-06T04:13:48;12.90;;;8.27;;
67272;SDS011;54190;49.770;9.250;2023-04-06T04:16:13;12.07;;;7.80;;
67272;SDS011;54190;49.770;9.250;2023-04-06T04:18:40;11.63;;;7.87;;
67272;SDS011;54190;49.770;9.250;2023-04-06T04:21:08;10.83;;;7.53;;
67272;SDS011;54190;49.770;9.250;2023-04-06T04:23:34;12.90;;;8.70;;
67272;SDS011;54190;49.770;9.250;2023-04-06T04:26:00;12.50;;;8.30;;
67272;SDS011;54190;49.770;9.250;2023-04-06T04:28:25;11.80;;;7.97;;
67272;SDS011;54190;49.770;9.250;2023-04-06T04:30:53;11.77;;;8.37;;
67272;SDS011;54190;49.770;9.250;2023-04-06T04:33:20;10.73;;;7.70;;
67272;SDS011;54190;49.770;9.250;2023-04-06T04:35:46;13.60;;;9.10;;
67272;SDS011;54190;49.770;9.250;2023-04-06T04:38:16;11.97;;;7.27;;
67272;SDS011;54190;49.770;9.250;2023-04-06T04:40:45;11.70;;;7.37;;
67272;SDS011;54190;49.770;9.250;2023-04-06T04:43:11;10.77;;;8.30;;
67272;SDS011;54190;49.770;9.250;2023-04-06T04:45:37;19.63;;;8.73;;
67272;SDS011;54190;49.770;9.250;2023-04-06T04:48:25;14.93;;;8.30;;
67272;SDS011;54190;49.770;9.250;2023-04-06T04:50:56;11.77;;;8.23;;
67272;SDS011;54190;49.770;9.250;2023-04-06T04:53:26;13.90;;;8.80;;
67272;SDS011;54190;49.770;9.250;2023-04-06T04:55:57;14.93;;;8.77;;
67272;SDS011;54190;49.770;9.250;2023-04-06T04:58:25;19.80;;;9.40;;
67272;SDS011;54190;49.770;9.250;2023-04-06T05:00:56;17.43;;;9.10;;
67272;SDS011;54190;49.770;9.250;2023-04-06T05:03:23;12.97;;;8.70;;
67272;SDS011;54190;49.770;9.250;2023-04-06T05:05:59;21.37;;;8.50;;
67272;SDS011;54190;49.770;9.250;2023-04-06T05:08:29;13.53;;;9.03;;
67272;SDS011;54190;49.770;9.250;2023-04-06T05:10:54;15.23;;;8.90;;
67272;SDS011;54190;49.770;9.250;2023-04-06T05:13:21;13.33;;;9.07;;
67272;SDS011;54190;49.770;9.250;2023-04-06T05:15:48;11.70;;;9.00;;
67272;SDS011;54190;49.770;9.250;2023-04-06T05:18:22;19.60;;;8.83;;
67272;SDS011;54190;49.770;9.250;2023-04-06T05:20:48;13.30;;;9.00;;
67272;SDS011;54190;49.770;9.250;2023-04-06T05:23:15;13.50;;;8.53;;
67272;SDS011;54190;49.770;9.250;2023-04-06T05:25:41;13.70;;;9.80;;
67272;SDS011;54190;49.770;9.250;2023-04-06T05:28:15;12.10;;;8.80;;
67272;SDS011;54190;49.770;9.250;2023-04-06T05:30:42;13.03;;;9.73;;
67272;SDS011;54190;49.770;9.250;2023-04-06T05:33:10;13.60;;;8.60;;
67272;SDS011;54190;49.770;9.250;2023-04-06T05:35:56;15.20;;;9.07;;
67272;SDS011;54190;49.770;9.250;2023-04-06T05:38:23;13.13;;;9.00;;
67272;SDS011;54190;49.770;9.250;2023-04-06T05:40:50;13.47;;;9.10;;
67272;SDS011;54190;49.770;9.250;2023-04-06T05:43:19;16.47;;;10.77;;
67272;SDS011;54190;49.770;9.250;2023-04-06T05:45:51;15.93;;;9.80;;
67272;SDS011;54190;49.770;9.250;2023-04-06T05:48:16;13.23;;;9.90;;
67272;SDS011;54190;49.770;9.250;2023-04-06T05:50:42;13.10;;;9.13;;
67272;SDS011;54190;49.770;9.250;2023-04-06T05:53:10;14.00;;;10.20;;
67272;SDS011;54190;49.770;9.250;2023-04-06T05:55:40;11.87;;;9.10;;
67272;SDS011;54190;49.770;9.250;2023-04-06T05:58:16;13.43;;;9.97;;
67272;SDS011;54190;49.770;9.250;2023-04-06T06:00:42;14.10;;;9.80;;
67272;SDS011;54190;49.770;9.250;2023-04-06T06:03:10;19.37;;;10.53;;
67272;SDS011;54190;49.770;9.250;2023-04-06T06:05:39;12.67;;;9.73;;
67272;SDS011;54190;49.770;9.250;2023-04-06T06:08:10;14.93;;;10.50;;
67272;SDS011;54190;49.770;9.250;2023-04-06T06:10:37;14.00;;;9.57;;
67272;SDS011;54190;49.770;9.250;2023-04-06T06:13:05;15.17;;;9.90;;
67272;SDS011;54190;49.770;9.250;2023-04-06T06:15:33;16.00;;;9.40;;
67272;SDS011;54190;49.770;9.250;2023-04-06T06:17:58;15.80;;;11.07;;
67272;SDS011;54190;49.770;9.250;2023-04-06T06:20:25;13.80;;;10.17;;
67272;SDS011;54190;49.770;9.250;2023-04-06T06:22:52;18.23;;;10.90;;
67272;SDS011;54190;49.770;9.250;2023-04-06T06:25:20;13.27;;;9.53;;
67272;SDS011;54190;49.770;9.250;2023-04-06T06:27:47;16.40;;;10.03;;
67272;SDS011;54190;49.770;9.250;2023-04-06T06:30:16;15.70;;;10.97;;
67272;SDS011;54190;49.770;9.250;2023-04-06T06:32:43;18.27;;;11.00;;
67272;SDS011;54190;49.770;9.250;2023-04-06T06:35:08;17.60;;;10.90;;
67272;SDS011;54190;49.770;9.250;2023-04-06T06:37:35;18.07;;;11.30;;
67272;SDS011;54190;49.770;9.250;2023-04-06T06:40:01;15.80;;;10.30;;
67272;SDS011;54190;49.770;9.250;2023-04-06T06:42:29;14.20;;;9.90;;
67272;SDS011;54190;49.770;9.250;2023-04-06T06:45:08;18.77;;;11.30;;
67272;SDS011;54190;49.770;9.250;2023-04-06T06:47:34;18.20;;;12.40;;
67272;SDS011;54190;49.770;9.250;2023-04-06T06:50:00;16.57;;;10.10;;
67272;SDS011;54190;49.770;9.250;2023-04-06T06:52:28;18.27;;;14.03;;
67272;SDS011;54190;49.770;9.250;2023-04-06T06:54:54;16.17;;;10.87;;
67272;SDS011;54190;49.770;9.250;2023-04-06T06:57:19;13.07;;;8.90;;
67272;SDS011;54190;49.770;9.250;2023-04-06T06:59:46;17.63;;;10.10;;
67272;SDS011;54190;49.770;9.250;2023-04-06T07:02:12;13.73;;;10.30;;
67272;SDS011;54190;49.770;9.250;2023-04-06T07:04:37;14.90;;;9.80;;
67272;SDS011;54190;49.770;9.250;2023-04-06T07:07:03;15.10;;;10.40;;
67272;SDS011;54190;49.770;9.250;2023-04-06T07:09:29;16.33;;;10.70;;
67272;SDS011;54190;49.770;9.250;2023-04-06T07:11:55;16.33;;;11.20;;
67272;SDS011;54190;49.770;9.250;2023-04-06T07:14:21;12.93;;;10.03;;
67272;SDS011;54190;49.770;9.250;2023-04-06T07:16:47;14.17;;;10.23;;
67272;SDS011;54190;49.770;9.250;2023-04-06T07:19:14;16.77;;;10.47;;
67272;SDS011;54190;49.770;9.250;2023-04-06T07:21:40;17.00;;;10.60;;
67272;SDS011;54190;49.770;9.250;2023-04-06T07:24:06;20.53;;;10.50;;
67272;SDS011;54190;49.770;9.250;2023-04-06T07:26:31;15.67;;;11.00;;
67272;SDS011;54190;49.770;9.250;2023-04-06T07:28:57;16.87;;;10.40;;
67272;SDS011;54190;49.770;9.250;2023-04-06T07:31:23;14.73;;;9.37;;
67272;SDS011;54190;49.770;9.250;2023-04-06T07:33:49;14.53;;;10.10;;
67272;SDS011;54190;49.770;9.250;2023-04-06T07:36:15;17.53;;;10.70;;
67272;SDS011;54190;49.770;9.250;2023-04-06T07:38:42;14.57;;;9.40;;
67272;SDS011;54190;49.770;9.250;2023-04-06T07:41:08;14.73;;;9.63;;
67272;SDS011;54190;49.770;9.250;2023-04-06T07:43:34;14.67;;;10.70;;
67272;SDS011;54190;49.770;9.250;2023-04-06T07:46:00;14.97;;;10.60;;
67272;SDS011;54190;49.770;9.250;2023-04-06T07:48:26;13.77;;;9.90;;
67272;SDS011;54190;49.770;9.250;2023-04-06T07:50:51;16.10;;;11.07;;
67272;SDS011;54190;49.770;9.250;2023-04-06T07:53:25;15.83;;;10.90;;
67272;SDS011;54190;49.770;9.250;2023-04-06T07:55:50;14.40;;;10.63;;
67272;SDS011;54190;49.770;9.250;2023-04-06T07:58:16;15.20;;;10.30;;
67272;SDS011;54190;49.770;9.250;2023-04-06T08:00:41;15.17;;;9.10;;
67272;SDS011;54190;49.770;9.250;2023-04-06T08:03:07;17.20;;;9.60;;
67272;SDS011;54190;49.770;9.250;2023-04-06T08:05:33;18.40;;;9.97;;
67272;SDS011;54190;49.770;9.250;2023-04-06T08:07:58;14.30;;;10.13;;
67272;SDS011;54190;49.770;9.250;2023-04-06T08:10:24;12.17;;;9.30;;
67272;SDS011;54190;49.770;9.250;2023-04-06T08:12:49;17.50;;;9.43;;
67272;SDS011;54190;49.770;9.250;2023-04-06T08:15:15;17.40;;;10.37;;
67272;SDS011;54190;49.770;9.250;2023-04-06T08:17:43;14.00;;;9.10;;
67272;SDS011;54190;49.770;9.250;2023-04-06T08:20:08;14.60;;;9.73;;
67272;SDS011;54190;49.770;9.250;2023-04-06T08:22:34;14.43;;;9.90;;
67272;SDS011;54190;49.770;9.250;2023-04-06T08:25:00;16.80;;;9.00;;
67272;SDS011;54190;49.770;9.250;2023-04-06T08:27:26;13.90;;;9.20;;
67272;SDS011;54190;49.770;9.250;2023-04-06T08:29:52;12.17;;;9.07;;
67272;SDS011;54190;49.770;9.250;2023-04-06T08:32:17;15.00;;;9.10;;
67272;SDS011;54190;49.770;9.250;2023-04-06T08:34:43;10.80;;;9.20;;
67272;SDS011;54190;49.770;9.250;2023-04-06T08:37:08;12.67;;;9.93;;
67272;SDS011;54190;49.770;9.250;2023-04-06T08:39:34;18.40;;;10.07;;
67272;SDS011;54190;49.770;9.250;2023-04-06T08:42:00;25.20;;;16.60;;
67272;SDS011;54190;49.770;9.250;2023-04-06T08:44:28;12.60;;;9.80;;
67272;SDS011;54190;49.770;9.250;2023-04-06T08:46:55;15.67;;;10.33;;
67272;SDS011;54190;49.770;9.250;2023-04-06T08:49:21;13.40;;;9.80;;
67272;SDS011;54190;49.770;9.250;2023-04-06T08:51:47;15.27;;;9.73;;
67272;SDS011;54190;49.770;9.250;2023-04-06T08:54:12;12.63;;;8.60;;
67272;SDS011;54190;49.770;9.250;2023-04-06T08:56:38;12.37;;;9.10;;
67272;SDS011;54190;49.770;9.250;2023-04-06T08:59:05;10.90;;;8.70;;
67272;SDS011;54190;49.770;9.250;2023-04-06T09:01:33;15.00;;;8.93;;
67272;SDS011;54190;49.770;9.250;2023-04-06T09:04:03;13.60;;;8.00;;
67272;SDS011;54190;49.770;9.250;2023-04-06T09:06:34;15.47;;;8.67;;
67272;SDS011;54190;49.770;9.250;2023-04-06T09:09:01;12.20;;;8.43;;
67272;SDS011;54190;49.770;9.250;2023-04-06T09:11:27;9.20;;;7.73;;
67272;SDS011;54190;49.770;9.250;2023-04-06T09:13:54;11.10;;;7.13;;
67272;SDS011;54190;49.770;9.250;2023-04-06T09:16:21;11.73;;;7.23;;
67272;SDS011;54190;49.770;9.250;2023-04-06T09:18:48;9.80;;;7.60;;
67272;SDS011;54190;49.770;9.250;2023-04-06T09:21:16;9.60;;;6.57;;
67272;SDS011;54190;49.770;9.250;2023-04-06T09:23:43;11.93;;;6.80;;
67272;SDS011;54190;49.770;9.250;2023-04-06T09:26:16;10.50;;;7.30;;
67272;SDS011;54190;49.770;9.250;2023-04-06T09:28:43;11.50;;;7.13;;
67272;SDS011;54190;49.770;9.250;2023-04-06T09:31:20;9.13;;;7.00;;
67272;SDS011;54190;49.770;9.250;2023-04-06T09:33:47;15.23;;;7.40;;
67272;SDS011;54190;49.770;9.250;2023-04-06T09:36:13;9.90;;;6.90;;
67272;SDS011;54190;49.770;9.250;2023-04-06T09:38:54;11.30;;;8.00;;
67272;SDS011;54190;49.770;9.250;2023-04-06T09:41:31;10.67;;;7.27;;
67272;SDS011;54190;49.770;9.250;2023-04-06T09:44:05;12.43;;;7.63;;
67272;SDS011;54190;49.770;9.250;2023-04-06T09:46:32;11.80;;;6.90;;
67272;SDS011;54190;49.770;9.250;2023-04-06T09:49:04;12.70;;;7.70;;
67272;SDS011;54190;49.770;9.250;2023-04-06T09:51:31;13.33;;;7.30;;
67272;SDS011;54190;49.770;9.250;2023-04-06T09:54:06;10.93;;;7.63;;
67272;SDS011;54190;49.770;9.250;2023-04-06T09:56:53;11.67;;;8.20;;
67272;SDS011;54190;49.770;9.250;2023-04-06T10:02:33;11.17;;;7.83;;
67272;SDS011;54190;49.770;9.250;2023-04-06T10:05:17;10.60;;;7.63;;
67272;SDS011;54190;49.770;9.250;2023-04-06T10:07:53;13.33;;;7.20;;
67272;SDS011;54190;49.770;9.250;2023-04-06T10:10:22;8.87;;;6.53;;
67272;SDS011;54190;49.770;9.250;2023-04-06T10:12:47;10.77;;;7.00;;
67272;SDS011;54190;49.770;9.250;2023-04-06T10:15:15;11.80;;;7.47;;
67272;SDS011;54190;49.770;9.250;2023-04-06T10:17:41;11.30;;;6.70;;
67272;SDS011;54190;49.770;9.250;2023-04-06T10:20:08;11.10;;;7.17;;
67272;SDS011;54190;49.770;9.250;2023-04-06T10:22:49;8.73;;;7.40;;
67272;SDS011;54190;49.770;9.250;2023-04-06T10:25:26;9.60;;;7.00;;
67272;SDS011;54190;49.770;9.250;2023-04-06T10:27:59;11.97;;;7.43;;
67272;SDS011;54190;49.770;9.250;2023-04-06T10:30:32;9.70;;;7.53;;
67272;SDS011;54190;49.770;9.250;2023-04-06T10:32:59;8.40;;;6.80;;
67272;SDS011;54190;49.770;9.250;2023-04-06T10:35:24;10.20;;;7.10;;
67272;SDS011;54190;49.770;9.250;2023-04-06T10:38:04;10.23;;;7.20;;
67272;SDS011;54190;49.770;9.250;2023-04-06T10:40:30;9.70;;;6.53;;
67272;SDS011;54190;49.770;9.250;2023-04-06T10:43:09;9.80;;;7.57;;
67272;SDS011;54190;49.770;9.250;2023-04-06T10:45:37;9.10;;;7.00;;
67272;SDS011;54190;49.770;9.250;2023-04-06T10:48:16;12.93;;;7.70;;
67272;SDS011;54190;49.770;9.250;2023-04-06T10:50:44;10.77;;;8.10;;
67272;SDS011;54190;49.770;9.250;2023-04-06T10:53:11;12.30;;;8.10;;
67272;SDS011;54190;49.770;9.250;2023-04-06T10:55:38;10.17;;;7.60;;
67272;SDS011;54190;49.770;9.250;2023-04-06T10:58:08;10.77;;;7.03;;
67272;SDS011;54190;49.770;9.250;2023-04-06T11:00:34;8.73;;;6.80;;
67272;SDS011;54190;49.770;9.250;2023-04-06T11:03:01;10.43;;;7.70;;
67272;SDS011;54190;49.770;9.250;2023-04-06T11:05:27;8.60;;;6.60;;
67272;SDS011;54190;49.770;9.250;2023-04-06T11:07:53;10.30;;;7.20;;
67272;SDS011;54190;49.770;9.250;2023-04-06T11:10:21;10.23;;;7.87;;
67272;SDS011;54190;49.770;9.250;2023-04-06T11:12:54;11.50;;;8.30;;
67272;SDS011;54190;49.770;9.250;2023-04-06T11:15:20;10.40;;;7.63;;
67272;SDS011;54190;49.770;9.250;2023-04-06T11:17:46;9.63;;;7.60;;
67272;SDS011;54190;49.770;9.250;2023-04-06T11:20:11;11.63;;;7.57;;
67272;SDS011;54190;49.770;9.250;2023-04-06T11:22:52;9.60;;;7.23;;
67272;SDS011;54190;49.770;9.250;2023-04-06T11:25:18;12.30;;;8.80;;
67272;SDS011;54190;49.770;9.250;2023-04-06T11:27:45;11.13;;;7.63;;
67272;SDS011;54190;49.770;9.250;2023-04-06T11:30:12;9.10;;;7.10;;
67272;SDS011;54190;49.770;9.250;2023-04-06T11:32:42;9.07;;;6.80;;
67272;SDS011;54190;49.770;9.250;2023-04-06T11:35:18;9.63;;;7.20;;
67272;SDS011;54190;49.770;9.250;2023-04-06T11:37:45;10.43;;;7.17;;
67272;SDS011;54190;49.770;9.250;2023-04-06T11:40:11;9.93;;;6.93;;
67272;SDS011;54190;49.770;9.250;2023-04-06T11:42:36;11.33;;;6.80;;
67272;SDS011;54190;49.770;9.250;2023-04-06T11:45:02;8.40;;;7.23;;
67272;SDS011;54190;49.770;9.250;2023-04-06T11:49:55;10.60;;;6.90;;
67272;SDS011;54190;49.770;9.250;2023-04-06T11:52:30;10.53;;;7.30;;
67272;SDS011;54190;49.770;9.250;2023-04-06T11:54:56;8.10;;;6.57;;
67272;SDS011;54190;49.770;9.250;2023-04-06T11:57:22;10.23;;;6.90;;
67272;SDS011;54190;49.770;9.250;2023-04-06T11:59:50;8.07;;;6.50;;
67272;SDS011;54190;49.770;9.250;2023-04-06T12:02:16;11.23;;;7.93;;
67272;SDS011;54190;49.770;9.250;2023-04-06T12:04:43;12.47;;;7.70;;
67272;SDS011;54190;49.770;9.250;2023-04-06T12:07:08;11.93;;;7.80;;
67272;SDS011;54190;49.770;9.250;2023-04-06T12:09:34;13.63;;;7.37;;
67272;SDS011;54190;49.770;9.250;2023-04-06T12:12:01;11.43;;;6.83;;
67272;SDS011;54190;49.770;9.250;2023-04-06T12:14:27;10.27;;;7.30;;
67272;SDS011;54190;49.770;9.250;2023-04-06T12:16:52;9.43;;;7.50;;
67272;SDS011;54190;49.770;9.250;2023-04-06T12:19:18;8.50;;;6.73;;
67272;SDS011;54190;49.770;9.250;2023-04-06T12:21:43;10.13;;;6.77;;
67272;SDS011;54190;49.770;9.250;2023-04-06T12:24:09;9.43;;;7.03;;
67272;SDS011;54190;49.770;9.250;2023-04-06T12:26:35;8.80;;;6.87;;
67272;SDS011;54190;49.770;9.250;2023-04-06T12:29:02;9.53;;;6.60;;
67272;SDS011;54190;49.770;9.250;2023-04-06T12:31:32;7.87;;;5.97;;
67272;SDS011;54190;49.770;9.250;2023-04-06T12:33:59;10.77;;;7.10;;
67272;SDS011;54190;49.770;9.250;2023-04-06T12:36:27;8.20;;;6.40;;
67272;SDS011;54190;49.770;9.250;2023-04-06T12:38:53;9.10;;;5.80;;
67272;SDS011;54190;49.770;9.250;2023-04-06T12:41:19;9.10;;;6.80;;
67272;SDS011;54190;49.770;9.250;2023-04-06T12:43:45;8.63;;;6.50;;
67272;SDS011;54190;49.770;9.250;2023-04-06T12:46:11;10.57;;;7.20;;
67272;SDS011;54190;49.770;9.250;2023-04-06T12:48:37;7.30;;;6.27;;
67272;SDS011;54190;49.770;9.250;2023-04-06T12:51:04;9.00;;;6.50;;
67272;SDS011;54190;49.770;9.250;2023-04-06T12:53:30;8.50;;;6.40;;
67272;SDS011;54190;49.770;9.250;2023-04-06T12:55:57;8.13;;;6.67;;
67272;SDS011;54190;49.770;9.250;2023-04-06T12:58:23;7.20;;;6.00;;
67272;SDS011;54190;49.770;9.250;2023-04-06T13:00:51;8.43;;;5.90;;
67272;SDS011;54190;49.770;9.250;2023-04-06T13:03:18;7.87;;;6.03;;
67272;SDS011;54190;49.770;9.250;2023-04-06T13:05:44;7.50;;;5.90;;
67272;SDS011;54190;49.770;9.250;2023-04-06T13:08:14;7.30;;;5.67;;
67272;SDS011;54190;49.770;9.250;2023-04-06T13:10:43;7.80;;;5.87;;
67272;SDS011;54190;49.770;9.250;2023-04-06T13:13:10;7.20;;;6.23;;
67272;SDS011;54190;49.770;9.250;2023-04-06T13:15:35;7.50;;;6.03;;
67272;SDS011;54190;49.770;9.250;2023-04-06T13:18:02;8.27;;;6.03;;
67272;SDS011;54190;49.770;9.250;2023-04-06T13:20:28;7.10;;;5.70;;
67272;SDS011;54190;49.770;9.250;2023-04-06T13:22:53;8.10;;;5.80;;
67272;SDS011;54190;49.770;9.250;2023-04-06T13:25:19;6.33;;;5.00;;
67272;SDS011;54190;49.770;9.250;2023-04-06T13:27:45;7.50;;;5.67;;
67272;SDS011;54190;49.770;9.250;2023-04-06T13:30:12;9.40;;;6.00;;
67272;SDS011;54190;49.770;9.250;2023-04-06T13:32:38;10.17;;;6.53;;
67272;SDS011;54190;49.770;9.250;2023-04-06T13:35:05;8.03;;;5.80;;
67272;SDS011;54190;49.770;9.250;2023-04-06T13:37:31;7.70;;;5.80;;
67272;SDS011;54190;49.770;9.250;2023-04-06T13:39:57;8.60;;;6.77;;
67272;SDS011;54190;49.770;9.250;2023-04-06T13:42:23;9.13;;;6.17;;
67272;SDS011;54190;49.770;9.250;2023-04-06T13:44:49;7.53;;;6.10;;
67272;SDS011;54190;49.770;9.250;2023-04-06T13:47:16;8.30;;;6.30;;
67272;SDS011;54190;49.770;9.250;2023-04-06T13:49:41;9.00;;;6.20;;
67272;SDS011;54190;49.770;9.250;2023-04-06T13:52:07;8.40;;;5.70;;
67272;SDS011;54190;49.770;9.250;2023-04-06T13:54:35;8.30;;;5.73;;
67272;SDS011;54190;49.770;9.250;2023-04-06T13:57:00;9.87;;;5.57;;
67272;SDS011;54190;49.770;9.250;2023-04-06T13:59:31;6.63;;;5.57;;
67272;SDS011;54190;49.770;9.250;2023-04-06T14:01:57;8.20;;;6.20;;
67272;SDS011;54190;49.770;9.250;2023-04-06T14:04:23;7.77;;;6.10;;
67272;SDS011;54190;49.770;9.250;2023-04-06T14:06:48;7.53;;;5.60;;
67272;SDS011;54190;49.770;9.250;2023-04-06T14:09:14;8.80;;;5.60;;
67272;SDS011;54190;49.770;9.250;2023-04-06T14:11:40;9.10;;;5.83;;
67272;SDS011;54190;49.770;9.250;2023-04-06T14:14:05;6.80;;;5.43;;
67272;SDS011;54190;49.770;9.250;2023-04-06T14:16:31;8.33;;;5.57;;
67272;SDS011;54190;49.770;9.250;2023-04-06T14:18:57;8.10;;;5.67;;
67272;SDS011;54190;49.770;9.250;2023-04-06T14:21:23;6.73;;;5.37;;
67272;SDS011;54190;49.770;9.250;2023-04-06T14:23:49;6.93;;;5.43;;
67272;SDS011;54190;49.770;9.250;2023-04-06T14:26:14;5.97;;;5.30;;
67272;SDS011;54190;49.770;9.250;2023-04-06T14:28:40;8.97;;;5.47;;
67272;SDS011;54190;49.770;9.250;2023-04-06T14:31:10;7.17;;;5.67;;
67272;SDS011;54190;49.770;9.250;2023-04-06T14:33:40;11.03;;;5.23;;
67272;SDS011;54190;49.770;9.250;2023-04-06T14:36:06;6.10;;;5.23;;
67272;SDS011;54190;49.770;9.250;2023-04-06T14:38:32;6.33;;;5.33;;
67272;SDS011;54190;49.770;9.250;2023-04-06T14:40:58;10.63;;;5.83;;
67272;SDS011;54190;49.770;9.250;2023-04-06T14:43:23;6.50;;;5.70;;
67272;SDS011;54190;49.770;9.250;2023-04-06T14:45:50;6.97;;;5.20;;
67272;SDS011;54190;49.770;9.250;2023-04-06T14:48:16;12.13;;;6.33;;